sensor_id;sensor_type;location;lat;lon;timestamp;temperature;humidity
8824;DHT22;4448;50.904;4.694;2023-04-01T00:00:18;11.10;99.90
8824;DHT22;4448;50.904;4.694;2023-04-01T00:02:44;11.20;99.90
8824;DHT22;4448;50.904;4.694;2023-04-01T00:05:10;11.20;99.90
8824;DHT22;4448;50.904;4.694;2023-04-01T00:07:37;11.10;99.90
8824;DHT22;4448;50.904;4.694;2023-04-01T00:10:05;11.10;99.90
8824;DHT22;4448;50.904;4.694;2023-04-01T00:12:31;11.10;99.90
8824;DHT22;4448;50.904;4.694;2023-04-01T00:14:57;11.10;99.90
8824;DHT22;4448;50.904;4.694;2023-04-01T00:17:23;11.10;99.90
8824;DHT22;4448;50.904;4.694;2023-04-01T00:19:48;11.20;99.90
8824;DHT22;4448;50.904;4.694;2023-04-01T00:22:14;11.10;99.90
8824;DHT22;4448;50.904;4.694;2023-04-01T00:24:41;11.10;99.90
8824;DHT22;4448;50.904;4.694;2023-04-01T00:27:06;11.10;99.90
8824;DHT22;4448;50.904;4.694;2023-04-01T00:29:33;11.10;99.90
8824;DHT22;4448;50.904;4.694;2023-04-01T00:31:59;11.10;99.90
8824;DHT22;4448;50.904;4.694;2023-04-01T00:34:25;11.10;99.90
8824;DHT22;4448;50.904;4.694;2023-04-01T00:36:51;11.10;99.90
8824;DHT22;4448;50.904;4.694;2023-04-01T00:39:20;11.10;99.90
8824;DHT22;4448;50.904;4.694;2023-04-01T00:41:47;11.10;99.90
8824;DHT22;4448;50.904;4.694;2023-04-01T00:44:22;11.10;99.90
8824;DHT22;4448;50.904;4.694;2023-04-01T00:46:49;11.10;99.90
8824;DHT22;4448;50.904;4.694;2023-04-01T00:49:19;11.10;99.90
8824;DHT22;4448;50.904;4.694;2023-04-01T00:51:47;11.10;99.90
8824;DHT22;4448;50.904;4.694;2023-04-01T00:54:15;11.10;99.90
8824;DHT22;4448;50.904;4.694;2023-04-01T00:57:04;11.10;99.90
8824;DHT22;4448;50.904;4.694;2023-04-01T00:59:42;11.10;99.90
8824;DHT22;4448;50.904;4.694;2023-04-01T01:02:11;11.10;99.90
8824;DHT22;4448;50.904;4.694;2023-04-01T01:04:37;11.10;99.90
8824;DHT22;4448;50.904;4.694;2023-04-01T01:10:14;11.10;99.90
8824;DHT22;4448;50.904;4.694;2023-04-01T01:15:34;11.10;99.90
8824;DHT22;4448;50.904;4.694;2023-04-01T01:20:49;11.10;99.90
8824;DHT22;4448;50.904;4.694;2023-04-01T01:28:53;11.10;99.90
8824;DHT22;4448;50.904;4.694;2023-04-01T01:31:37;11.10;99.90
8824;DHT22;4448;50.904;4.694;2023-04-01T01:34:18;11.10;99.90
8824;DHT22;4448;50.904;4.694;2023-04-01T01:36:48;11.10;99.90
8824;DHT22;4448;50.904;4.694;2023-04-01T01:39:17;11.10;99.90
8824;DHT22;4448;50.904;4.694;2023-04-01T01:41:45;11.10;99.90
8824;DHT22;4448;50.904;4.694;2023-04-01T01:44:17;11.10;99.90
8824;DHT22;4448;50.904;4.694;2023-04-01T01:46:43;11.10;99.90
8824;DHT22;4448;50.904;4.694;2023-04-01T01:49:11;11.10;99.90
8824;DHT22;4448;50.904;4.694;2023-04-01T01:51:38;11.10;99.90
8824;DHT22;4448;50.904;4.694;2023-04-01T01:54:05;11.10;99.90
8824;DHT22;4448;50.904;4.694;2023-04-01T01:56:32;11.10;99.90
8824;DHT22;4448;50.904;4.694;2023-04-01T01:59:04;11.10;99.90
8824;DHT22;4448;50.904;4.694;2023-04-01T02:01:33;11.10;99.90
8824;DHT22;4448;50.904;4.694;2023-04-01T02:04:02;11.10;99.90
8824;DHT22;4448;50.904;4.694;2023-04-01T02:06:31;11.10;99.90
8824;DHT22;4448;50.904;4.694;2023-04-01T02:09:06;11.00;99.90
8824;DHT22;4448;50.904;4.694;2023-04-01T02:11:41;11.10;99.90
8824;DHT22;4448;50.904;4.694;2023-04-01T02:14:21;11.10;99.90
8824;DHT22;4448;50.904;4.694;2023-04-01T02:16:57;11.10;99.90
8824;DHT22;4448;50.904;4.694;2023-04-01T02:19:28;11.10;99.90
8824;DHT22;4448;50.904;4.694;2023-04-01T02:21:57;11.10;99.90
8824;DHT22;4448;50.904;4.694;2023-04-01T02:24:26;11.10;99.90
8824;DHT22;4448;50.904;4.694;2023-04-01T02:26:53;11.10;99.90
8824;DHT22;4448;50.904;4.694;2023-04-01T02:29:21;11.10;99.90
8824;DHT22;4448;50.904;4.694;2023-04-01T02:31:49;11.10;99.90
8824;DHT22;4448;50.904;4.694;2023-04-01T02:34:15;11.10;99.90
8824;DHT22;4448;50.904;4.694;2023-04-01T02:36:41;11.10;99.90
8824;DHT22;4448;50.904;4.694;2023-04-01T02:39:08;11.10;99.90
8824;DHT22;4448;50.904;4.694;2023-04-01T02:41:44;11.10;99.90
8824;DHT22;4448;50.904;4.694;2023-04-01T02:44:12;11.10;99.90
8824;DHT22;4448;50.904;4.694;2023-04-01T02:46:38;11.10;99.90
8824;DHT22;4448;50.904;4.694;2023-04-01T02:49:04;11.10;99.90
8824;DHT22;4448;50.904;4.694;2023-04-01T02:51:30;11.10;99.90
8824;DHT22;4448;50.904;4.694;2023-04-01T02:53:56;11.00;99.90
8824;DHT22;4448;50.904;4.694;2023-04-01T02:56:22;11.00;99.90
8824;DHT22;4448;50.904;4.694;2023-04-01T02:58:48;11.00;99.90
8824;DHT22;4448;50.904;4.694;2023-04-01T03:01:13;11.00;99.90
8824;DHT22;4448;50.904;4.694;2023-04-01T03:03:39;11.00;99.90
8824;DHT22;4448;50.904;4.694;2023-04-01T03:06:13;11.00;99.90
8824;DHT22;4448;50.904;4.694;2023-04-01T03:08:39;11.00;99.90
8824;DHT22;4448;50.904;4.694;2023-04-01T03:11:05;11.00;99.90
8824;DHT22;4448;50.904;4.694;2023-04-01T03:13:31;11.00;99.90
8824;DHT22;4448;50.904;4.694;2023-04-01T03:15:57;11.00;99.90
8824;DHT22;4448;50.904;4.694;2023-04-01T03:18:23;11.00;99.90
8824;DHT22;4448;50.904;4.694;2023-04-01T03:20:49;11.00;99.90
8824;DHT22;4448;50.904;4.694;2023-04-01T03:23:14;11.00;99.90
8824;DHT22;4448;50.904;4.694;2023-04-01T03:25:42;11.00;99.90
8824;DHT22;4448;50.904;4.694;2023-04-01T03:28:08;11.00;99.90
8824;DHT22;4448;50.904;4.694;2023-04-01T03:30:34;11.00;99.90
8824;DHT22;4448;50.904;4.694;2023-04-01T03:33:00;11.00;99.90
8824;DHT22;4448;50.904;4.694;2023-04-01T03:35:27;11.00;99.90
8824;DHT22;4448;50.904;4.694;2023-04-01T03:37:54;11.00;99.90
8824;DHT22;4448;50.904;4.694;2023-04-01T03:40:20;11.00;99.90
8824;DHT22;4448;50.904;4.694;2023-04-01T03:42:46;11.00;99.90
8824;DHT22;4448;50.904;4.694;2023-04-01T03:45:12;11.00;99.90
8824;DHT22;4448;50.904;4.694;2023-04-01T03:47:39;11.00;99.90
8824;DHT22;4448;50.904;4.694;2023-04-01T03:50:06;11.00;99.90
8824;DHT22;4448;50.904;4.694;2023-04-01T03:52:32;11.00;99.90
8824;DHT22;4448;50.904;4.694;2023-04-01T03:54:57;11.00;99.90
8824;DHT22;4448;50.904;4.694;2023-04-01T03:57:24;11.00;99.90
8824;DHT22;4448;50.904;4.694;2023-04-01T03:59:51;11.00;99.90
8824;DHT22;4448;50.904;4.694;2023-04-01T04:02:17;11.00;99.90
8824;DHT22;4448;50.904;4.694;2023-04-01T04:04:43;11.00;99.90
8824;DHT22;4448;50.904;4.694;2023-04-01T04:07:09;11.00;99.90
8824;DHT22;4448;50.904;4.694;2023-04-01T04:09:34;11.00;99.90
8824;DHT22;4448;50.904;4.694;2023-04-01T04:12:00;11.00;99.90
8824;DHT22;4448;50.904;4.694;2023-04-01T04:14:26;11.00;99.90
8824;DHT22;4448;50.904;4.694;2023-04-01T04:16:52;11.00;99.90
8824;DHT22;4448;50.904;4.694;2023-04-01T04:19:18;11.00;99.90
8824;DHT22;4448;50.904;4.694;2023-04-01T04:21:43;11.00;99.90
8824;DHT22;4448;50.904;4.694;2023-04-01T04:24:09;11.00;99.90
8824;DHT22;4448;50.904;4.694;2023-04-01T04:26:35;11.00;99.90
8824;DHT22;4448;50.904;4.694;2023-04-01T04:29:02;11.00;99.90
8824;DHT22;4448;50.904;4.694;2023-04-01T04:31:28;11.00;99.90
8824;DHT22;4448;50.904;4.694;2023-04-01T04:33:54;11.00;99.90
8824;DHT22;4448;50.904;4.694;2023-04-01T04:36:21;11.00;99.90
8824;DHT22;4448;50.904;4.694;2023-04-01T04:38:48;11.00;99.90
8824;DHT22;4448;50.904;4.694;2023-04-01T04:41:15;11.00;99.90
8824;DHT22;4448;50.904;4.694;2023-04-01T04:43:55;11.00;99.90
8824;DHT22;4448;50.904;4.694;2023-04-01T04:46:21;11.00;99.90
8824;DHT22;4448;50.904;4.694;2023-04-01T04:48:47;11.00;99.90
8824;DHT22;4448;50.904;4.694;2023-04-01T04:51:18;11.00;99.90
8824;DHT22;4448;50.904;4.694;2023-04-01T04:53:44;11.00;99.90
8824;DHT22;4448;50.904;4.694;2023-04-01T04:56:10;11.00;99.90
8824;DHT22;4448;50.904;4.694;2023-04-01T04:58:36;11.00;99.90
8824;DHT22;4448;50.904;4.694;2023-04-01T05:01:10;11.00;99.90
8824;DHT22;4448;50.904;4.694;2023-04-01T05:03:36;11.00;99.90
8824;DHT22;4448;50.904;4.694;2023-04-01T05:06:02;11.00;99.90
8824;DHT22;4448;50.904;4.694;2023-04-01T05:08:28;11.00;99.90
8824;DHT22;4448;50.904;4.694;2023-04-01T05:10:54;11.00;99.90
8824;DHT22;4448;50.904;4.694;2023-04-01T05:13:19;10.90;99.90
8824;DHT22;4448;50.904;4.694;2023-04-01T05:15:45;10.90;99.90
8824;DHT22;4448;50.904;4.694;2023-04-01T05:18:11;11.00;99.90
8824;DHT22;4448;50.904;4.694;2023-04-01T05:20:36;11.00;99.90
8824;DHT22;4448;50.904;4.694;2023-04-01T05:23:02;11.00;99.90
8824;DHT22;4448;50.904;4.694;2023-04-01T05:25:28;11.00;99.90
8824;DHT22;4448;50.904;4.694;2023-04-01T05:27:53;11.00;99.90
8824;DHT22;4448;50.904;4.694;2023-04-01T05:30:20;11.00;99.90
8824;DHT22;4448;50.904;4.694;2023-04-01T05:32:46;11.00;99.90
8824;DHT22;4448;50.904;4.694;2023-04-01T05:35:11;11.00;99.90
8824;DHT22;4448;50.904;4.694;2023-04-01T05:37:37;11.00;99.90
8824;DHT22;4448;50.904;4.694;2023-04-01T05:40:03;11.00;99.90
8824;DHT22;4448;50.904;4.694;2023-04-01T05:42:29;10.90;99.90
8824;DHT22;4448;50.904;4.694;2023-04-01T05:44:55;11.00;99.90
8824;DHT22;4448;50.904;4.694;2023-04-01T05:47:22;10.90;99.90
8824;DHT22;4448;50.904;4.694;2023-04-01T05:49:47;11.00;99.90
8824;DHT22;4448;50.904;4.694;2023-04-01T05:52:13;11.00;99.90
8824;DHT22;4448;50.904;4.694;2023-04-01T05:54:39;11.00;99.90
8824;DHT22;4448;50.904;4.694;2023-04-01T05:57:04;11.00;99.90
8824;DHT22;4448;50.904;4.694;2023-04-01T05:59:30;11.00;99.90
8824;DHT22;4448;50.904;4.694;2023-04-01T06:01:57;11.00;99.90
8824;DHT22;4448;50.904;4.694;2023-04-01T06:04:23;11.00;99.90
8824;DHT22;4448;50.904;4.694;2023-04-01T06:06:49;11.00;99.90
8824;DHT22;4448;50.904;4.694;2023-04-01T06:09:16;11.00;99.90
8824;DHT22;4448;50.904;4.694;2023-04-01T06:14:51;11.00;99.90
8824;DHT22;4448;50.904;4.694;2023-04-01T06:21:06;11.00;99.90
8824;DHT22;4448;50.904;4.694;2023-04-01T06:23:56;11.00;99.90
8824;DHT22;4448;50.904;4.694;2023-04-01T06:50:28;11.00;99.90
8824;DHT22;4448;50.904;4.694;2023-04-01T06:53:29;11.00;99.90
8824;DHT22;4448;50.904;4.694;2023-04-01T06:55:51;11.00;99.90
8824;DHT22;4448;50.904;4.694;2023-04-01T06:58:27;11.00;99.90
8824;DHT22;4448;50.904;4.694;2023-04-01T07:00:57;11.00;99.90
8824;DHT22;4448;50.904;4.694;2023-04-01T07:03:34;11.00;99.90
8824;DHT22;4448;50.904;4.694;2023-04-01T07:06:04;11.00;99.90
8824;DHT22;4448;50.904;4.694;2023-04-01T07:08:33;11.00;99.90
8824;DHT22;4448;50.904;4.694;2023-04-01T07:11:02;11.00;99.90
8824;DHT22;4448;50.904;4.694;2023-04-01T07:13:53;11.00;99.90
8824;DHT22;4448;50.904;4.694;2023-04-01T07:16:34;11.00;99.90
8824;DHT22;4448;50.904;4.694;2023-04-01T07:19:26;11.10;99.90
8824;DHT22;4448;50.904;4.694;2023-04-01T07:22:05;11.10;99.90
8824;DHT22;4448;50.904;4.694;2023-04-01T07:24:39;11.10;99.90
8824;DHT22;4448;50.904;4.694;2023-04-01T07:27:10;11.00;99.90
8824;DHT22;4448;50.904;4.694;2023-04-01T07:29:36;11.10;99.90
8824;DHT22;4448;50.904;4.694;2023-04-01T07:32:35;11.10;99.90
8824;DHT22;4448;50.904;4.694;2023-04-01T07:49:03;11.10;99.90
8824;DHT22;4448;50.904;4.694;2023-04-01T07:54:25;11.20;99.90
8824;DHT22;4448;50.904;4.694;2023-04-01T07:57:19;11.20;99.90
8824;DHT22;4448;50.904;4.694;2023-04-01T08:07:48;11.30;99.90
8824;DHT22;4448;50.904;4.694;2023-04-01T08:10:32;11.30;99.90
8824;DHT22;4448;50.904;4.694;2023-04-01T08:15:37;11.30;99.90
8824;DHT22;4448;50.904;4.694;2023-04-01T08:20:41;11.30;99.90
8824;DHT22;4448;50.904;4.694;2023-04-01T08:25:39;11.30;99.90
8824;DHT22;4448;50.904;4.694;2023-04-01T08:31:08;11.30;99.90
8824;DHT22;4448;50.904;4.694;2023-04-01T08:33:34;11.40;99.90
8824;DHT22;4448;50.904;4.694;2023-04-01T08:41:55;11.40;99.90
8824;DHT22;4448;50.904;4.694;2023-04-01T09:07:02;11.50;99.90
8824;DHT22;4448;50.904;4.694;2023-04-01T09:09:35;11.50;99.90
8824;DHT22;4448;50.904;4.694;2023-04-01T09:12:39;11.50;99.90
8824;DHT22;4448;50.904;4.694;2023-04-01T09:18:39;11.60;99.90
8824;DHT22;4448;50.904;4.694;2023-04-01T09:21:21;11.60;99.90
8824;DHT22;4448;50.904;4.694;2023-04-01T09:27:10;11.70;99.90
8824;DHT22;4448;50.904;4.694;2023-04-01T09:30:01;11.70;99.90
8824;DHT22;4448;50.904;4.694;2023-04-01T09:43:25;11.80;99.90
8824;DHT22;4448;50.904;4.694;2023-04-01T09:57:21;11.80;99.90
8824;DHT22;4448;50.904;4.694;2023-04-01T10:00:15;11.80;99.90
8824;DHT22;4448;50.904;4.694;2023-04-01T10:09:20;11.80;99.90
8824;DHT22;4448;50.904;4.694;2023-04-01T10:20:31;11.90;99.90
8824;DHT22;4448;50.904;4.694;2023-04-01T10:32:31;12.00;99.90
8824;DHT22;4448;50.904;4.694;2023-04-01T10:48:13;12.40;99.90
8824;DHT22;4448;50.904;4.694;2023-04-01T10:51:03;12.40;99.90
8824;DHT22;4448;50.904;4.694;2023-04-01T10:53:57;12.60;99.90
8824;DHT22;4448;50.904;4.694;2023-04-01T10:57:46;12.60;99.90
8824;DHT22;4448;50.904;4.694;2023-04-01T10:59:57;12.60;99.90
8824;DHT22;4448;50.904;4.694;2023-04-01T11:33:19;12.50;99.90
8824;DHT22;4448;50.904;4.694;2023-04-01T11:38:47;12.40;99.90
8824;DHT22;4448;50.904;4.694;2023-04-01T11:41:37;12.40;99.90
8824;DHT22;4448;50.904;4.694;2023-04-01T11:44:16;12.40;99.90
8824;DHT22;4448;50.904;4.694;2023-04-01T11:47:10;12.30;99.90
8824;DHT22;4448;50.904;4.694;2023-04-01T11:53:43;12.30;99.90
8824;DHT22;4448;50.904;4.694;2023-04-01T12:01:36;12.30;99.90
8824;DHT22;4448;50.904;4.694;2023-04-01T12:12:40;12.40;99.90
8824;DHT22;4448;50.904;4.694;2023-04-01T12:20:54;12.60;99.90
8824;DHT22;4448;50.904;4.694;2023-04-01T12:26:22;12.60;99.90
8824;DHT22;4448;50.904;4.694;2023-04-01T12:32:36;12.70;99.90
8824;DHT22;4448;50.904;4.694;2023-04-01T13:00:08;12.50;99.90
8824;DHT22;4448;50.904;4.694;2023-04-01T13:15:41;12.40;99.90
8824;DHT22;4448;50.904;4.694;2023-04-01T13:21:15;12.40;99.90
8824;DHT22;4448;50.904;4.694;2023-04-01T13:29:18;12.40;99.90
8824;DHT22;4448;50.904;4.694;2023-04-01T13:37:56;12.50;99.90
8824;DHT22;4448;50.904;4.694;2023-04-01T13:40:54;12.60;99.90
8824;DHT22;4448;50.904;4.694;2023-04-01T13:43:39;12.60;99.90
8824;DHT22;4448;50.904;4.694;2023-04-01T13:58:35;12.50;99.90
8824;DHT22;4448;50.904;4.694;2023-04-01T14:09:34;12.50;99.90
8824;DHT22;4448;50.904;4.694;2023-04-01T14:12:26;12.50;99.90
8824;DHT22;4448;50.904;4.694;2023-04-01T14:23:20;12.40;99.90
8824;DHT22;4448;50.904;4.694;2023-04-01T14:39:15;12.40;99.90
8824;DHT22;4448;50.904;4.694;2023-04-01T14:47:34;12.50;99.90
8824;DHT22;4448;50.904;4.694;2023-04-01T14:50:17;12.50;99.90
8824;DHT22;4448;50.904;4.694;2023-04-01T14:52:57;12.50;99.90
8824;DHT22;4448;50.904;4.694;2023-04-01T14:55:31;12.60;99.90
8824;DHT22;4448;50.904;4.694;2023-04-01T15:03:30;12.60;99.90
8824;DHT22;4448;50.904;4.694;2023-04-01T15:11:37;12.60;99.90
8824;DHT22;4448;50.904;4.694;2023-04-01T15:14:35;12.60;99.90
8824;DHT22;4448;50.904;4.694;2023-04-01T15:17:26;12.60;99.90
8824;DHT22;4448;50.904;4.694;2023-04-01T15:20:17;12.60;99.90
8824;DHT22;4448;50.904;4.694;2023-04-01T15:25:43;12.50;99.90
8824;DHT22;4448;50.904;4.694;2023-04-01T15:28:37;12.50;99.90
8824;DHT22;4448;50.904;4.694;2023-04-01T15:31:46;12.40;99.90
8824;DHT22;4448;50.904;4.694;2023-04-01T15:45:31;12.30;99.90
8824;DHT22;4448;50.904;4.694;2023-04-01T15:48:21;12.20;99.90
8824;DHT22;4448;50.904;4.694;2023-04-01T15:51:09;12.20;99.90
8824;DHT22;4448;50.904;4.694;2023-04-01T15:57:16;12.20;99.90
8824;DHT22;4448;50.904;4.694;2023-04-01T16:15:37;12.00;99.90
8824;DHT22;4448;50.904;4.694;2023-04-01T16:18:19;12.00;99.90
8824;DHT22;4448;50.904;4.694;2023-04-01T16:21:10;12.00;99.90
8824;DHT22;4448;50.904;4.694;2023-04-01T16:23:55;12.00;99.90
8824;DHT22;4448;50.904;4.694;2023-04-01T16:26:28;11.90;99.90
8824;DHT22;4448;50.904;4.694;2023-04-01T16:29:08;11.90;99.90
8824;DHT22;4448;50.904;4.694;2023-04-01T16:34:43;11.90;99.90
8824;DHT22;4448;50.904;4.694;2023-04-01T16:37:29;11.90;99.90
8824;DHT22;4448;50.904;4.694;2023-04-01T16:40:33;11.80;99.90
8824;DHT22;4448;50.904;4.694;2023-04-01T16:43:21;11.80;99.90
8824;DHT22;4448;50.904;4.694;2023-04-01T16:46:20;11.80;99.90
8824;DHT22;4448;50.904;4.694;2023-04-01T16:51:47;11.80;99.90
8824;DHT22;4448;50.904;4.694;2023-04-01T16:54:36;11.70;99.90
8824;DHT22;4448;50.904;4.694;2023-04-01T17:00:36;11.70;99.90
8824;DHT22;4448;50.904;4.694;2023-04-01T17:02:57;11.70;99.90
8824;DHT22;4448;50.904;4.694;2023-04-01T17:06:04;11.70;99.90
8824;DHT22;4448;50.904;4.694;2023-04-01T17:11:24;11.60;99.90
8824;DHT22;4448;50.904;4.694;2023-04-01T17:14:09;11.60;99.90
8824;DHT22;4448;50.904;4.694;2023-04-01T17:17:17;11.60;99.90
8824;DHT22;4448;50.904;4.694;2023-04-01T17:28:05;11.50;99.90
8824;DHT22;4448;50.904;4.694;2023-04-01T17:36:18;11.50;99.90
8824;DHT22;4448;50.904;4.694;2023-04-01T17:41:47;11.50;99.90
8824;DHT22;4448;50.904;4.694;2023-04-01T17:44:37;11.50;99.90
8824;DHT22;4448;50.904;4.694;2023-04-01T17:52:37;11.40;99.90
8824;DHT22;4448;50.904;4.694;2023-04-01T18:06:32;11.40;99.90
8824;DHT22;4448;50.904;4.694;2023-04-01T18:19:40;11.30;99.90
8824;DHT22;4448;50.904;4.694;2023-04-01T18:22:24;11.30;99.90
8824;DHT22;4448;50.904;4.694;2023-04-01T18:27:44;11.30;99.90
8824;DHT22;4448;50.904;4.694;2023-04-01T18:30:27;11.30;99.90
8824;DHT22;4448;50.904;4.694;2023-04-01T18:32:58;11.30;99.90
8824;DHT22;4448;50.904;4.694;2023-04-01T18:35:45;11.30;99.90
8824;DHT22;4448;50.904;4.694;2023-04-01T18:38:33;11.30;99.90
8824;DHT22;4448;50.904;4.694;2023-04-01T18:41:20;11.20;99.90
8824;DHT22;4448;50.904;4.694;2023-04-01T18:44:05;11.30;99.90
8824;DHT22;4448;50.904;4.694;2023-04-01T18:46:57;11.20;99.90
8824;DHT22;4448;50.904;4.694;2023-04-01T18:52:39;11.20;99.90
8824;DHT22;4448;50.904;4.694;2023-04-01T18:55:21;11.20;99.90
8824;DHT22;4448;50.904;4.694;2023-04-01T18:57:53;11.20;99.90
8824;DHT22;4448;50.904;4.694;2023-04-01T19:00:41;11.20;99.90
8824;DHT22;4448;50.904;4.694;2023-04-01T19:03:32;11.20;99.90
8824;DHT22;4448;50.904;4.694;2023-04-01T19:06:06;11.20;99.90
8824;DHT22;4448;50.904;4.694;2023-04-01T19:08:35;11.20;99.90
8824;DHT22;4448;50.904;4.694;2023-04-01T19:19:41;11.20;99.90
8824;DHT22;4448;50.904;4.694;2023-04-01T19:27:25;11.10;99.90
8824;DHT22;4448;50.904;4.694;2023-04-01T19:30:13;11.10;99.90
8824;DHT22;4448;50.904;4.694;2023-04-01T19:32:49;11.10;99.90
8824;DHT22;4448;50.904;4.694;2023-04-01T19:38:15;11.00;99.90
8824;DHT22;4448;50.904;4.694;2023-04-01T19:49:02;11.10;99.90
8824;DHT22;4448;50.904;4.694;2023-04-01T19:59:38;11.00;99.90
8824;DHT22;4448;50.904;4.694;2023-04-01T20:04:54;11.00;99.90
8824;DHT22;4448;50.904;4.694;2023-04-01T20:07:34;11.00;99.90
8824;DHT22;4448;50.904;4.694;2023-04-01T20:10:14;11.00;99.90
8824;DHT22;4448;50.904;4.694;2023-04-01T20:15:43;11.00;99.90
8824;DHT22;4448;50.904;4.694;2023-04-01T20:18:16;11.00;99.90
8824;DHT22;4448;50.904;4.694;2023-04-01T20:21:30;11.00;99.90
8824;DHT22;4448;50.904;4.694;2023-04-01T20:23:54;11.00;99.90
8824;DHT22;4448;50.904;4.694;2023-04-01T20:26:29;11.00;99.90
8824;DHT22;4448;50.904;4.694;2023-04-01T20:31:41;11.00;99.90
8824;DHT22;4448;50.904;4.694;2023-04-01T20:50:59;11.00;99.90
8824;DHT22;4448;50.904;4.694;2023-04-01T20:53:45;11.00;99.90
8824;DHT22;4448;50.904;4.694;2023-04-01T20:56:32;11.00;99.90
8824;DHT22;4448;50.904;4.694;2023-04-01T21:05:30;11.00;99.90
8824;DHT22;4448;50.904;4.694;2023-04-01T21:08:16;11.00;99.90
8824;DHT22;4448;50.904;4.694;2023-04-01T21:10:51;11.00;99.90
8824;DHT22;4448;50.904;4.694;2023-04-01T21:16:43;11.00;99.90
8824;DHT22;4448;50.904;4.694;2023-04-01T21:22:33;11.00;99.90
8824;DHT22;4448;50.904;4.694;2023-04-01T21:28:01;11.00;99.90
8824;DHT22;4448;50.904;4.694;2023-04-01T22:01:50;11.00;99.90
8824;DHT22;4448;50.904;4.694;2023-04-01T22:07:21;11.00;99.90
8824;DHT22;4448;50.904;4.694;2023-04-01T22:09:54;11.00;99.90
8824;DHT22;4448;50.904;4.694;2023-04-01T22:12:36;11.00;99.90
8824;DHT22;4448;50.904;4.694;2023-04-01T22:21:03;11.00;99.90
8824;DHT22;4448;50.904;4.694;2023-04-01T22:23:39;11.00;99.90
8824;DHT22;4448;50.904;4.694;2023-04-01T22:31:49;10.90;99.90
8824;DHT22;4448;50.904;4.694;2023-04-01T22:34:49;10.90;99.90
8824;DHT22;4448;50.904;4.694;2023-04-01T22:56:22;10.90;99.90
8824;DHT22;4448;50.904;4.694;2023-04-01T22:59:06;10.80;99.90
8824;DHT22;4448;50.904;4.694;2023-04-01T23:01:40;10.80;99.90
8824;DHT22;4448;50.904;4.694;2023-04-01T23:04:11;10.80;99.90
8824;DHT22;4448;50.904;4.694;2023-04-01T23:06:46;10.80;99.90
8824;DHT22;4448;50.904;4.694;2023-04-01T23:09:34;10.80;99.90
8824;DHT22;4448;50.904;4.694;2023-04-01T23:12:11;10.80;99.90
8824;DHT22;4448;50.904;4.694;2023-04-01T23:14:47;10.80;99.90
8824;DHT22;4448;50.904;4.694;2023-04-01T23:26:04;10.80;99.90
8824;DHT22;4448;50.904;4.694;2023-04-01T23:31:29;10.80;99.90
8824;DHT22;4448;50.904;4.694;2023-04-01T23:33:58;10.70;99.90
8824;DHT22;4448;50.904;4.694;2023-04-01T23:36:25;10.70;99.90
8824;DHT22;4448;50.904;4.694;2023-04-01T23:38:51;10.70;99.90
8824;DHT22;4448;50.904;4.694;2023-04-01T23:41:32;10.70;99.90
8824;DHT22;4448;50.904;4.694;2023-04-01T23:44:09;10.70;99.90
8824;DHT22;4448;50.904;4.694;2023-04-01T23:46:37;10.70;99.90
8824;DHT22;4448;50.904;4.694;2023-04-01T23:49:09;10.70;99.90
8824;DHT22;4448;50.904;4.694;2023-04-01T23:51:46;10.70;99.90
8824;DHT22;4448;50.904;4.694;2023-04-01T23:55:24;10.70;99.90
8824;DHT22;4448;50.904;4.694;2023-04-01T23:57:31;10.70;99.90
